Time;durP1;ratioP1;P1;durP2;ratioP2;P2;SDS_P1;SDS_P2;PMS_P1;PMS_P2;Temp;Humidity;BMP_temperature;BMP_pressure;BME280_temperature;BME280_humidity;BME280_pressure;Samples;Min_cycle;Max_cycle;Signal;HPM_P1;HPM_P2
2021/06/29 00:01:08;;;;;;;45.13;24.17;;;;;;;;;;5071631;28;20044;-89
2021/06/29 00:03:33;;;;;;;46.28;23.10;;;;;;;;;;5057549;28;20017;-88
2021/06/29 00:05:58;;;;;;;43.92;25.00;;;;;;;;;;5071799;28;20396;-88
2021/06/29 00:08:23;;;;;;;52.65;30.25;;;;;;;;;;5055346;28;20020;-88
2021/06/29 00:10:49;;;;;;;52.50;29.73;;;;;;;;;;5059502;28;20499;-88
2021/06/29 00:13:14;;;;;;;55.13;29.40;;;;;;;;;;5071941;28;20024;-89
2021/06/29 00:15:40;;;;;;;50.08;27.50;;;;;;;;;;5066588;28;20031;-89
2021/06/29 00:18:06;;;;;;;49.08;26.45;;;;;;;;;;5068907;28;20490;-88
2021/06/29 00:20:32;;;;;;;50.30;28.05;;;;;;;;;;5072354;28;20513;-88
2021/06/29 00:22:57;;;;;;;45.45;24.90;;;;;;;;;;5065104;28;20435;-88
2021/06/29 00:25:22;;;;;;;48.60;27.33;;;;;;;;;;5074882;28;20055;-88
2021/06/29 00:27:47;;;;;;;47.85;27.02;;;;;;;;;;5075150;28;20107;-88
2021/06/29 00:30:14;;;;;;;46.63;26.92;;;;;;;;;;5061836;28;20571;-88
2021/06/29 00:32:40;;;;;;;49.40;26.15;;;;;;;;;;5060859;28;20476;-88
2021/06/29 00:35:06;;;;;;;48.75;27.83;;;;;;;;;;5074772;28;20013;-88
2021/06/29 00:37:31;;;;;;;49.60;27.42;;;;;;;;;;5074810;28;20532;-88
2021/06/29 00:39:56;;;;;;;46.60;26.17;;;;;;;;;;5074612;28;20021;-89
2021/06/29 00:42:21;;;;;;;44.42;26.23;;;;;;;;;;5074796;28;20020;-89
2021/06/29 00:44:47;;;;;;;47.70;27.88;;;;;;;;;;5068400;28;20174;-89
2021/06/29 00:47:12;;;;;;;45.08;27.08;;;;;;;;;;5066469;28;20028;-88
2021/06/29 00:49:38;;;;;;;50.67;29.63;;;;;;;;;;5071137;28;20020;-88
2021/06/29 00:52:04;;;;;;;49.85;30.00;;;;;;;;;;5074640;28;20008;-89
2021/06/29 00:54:30;;;;;;;51.60;29.75;;;;;;;;;;5074403;28;20012;-88
2021/06/29 00:56:55;;;;;;;60.22;32.60;;;;;;;;;;5068994;28;20078;-88
2021/06/29 00:59:20;;;;;;;69.57;35.15;;;;;;;;;;5067226;28;20021;-88
2021/06/29 01:01:45;;;;;;;72.82;36.47;;;;;;;;;;5075410;28;20012;-88
2021/06/29 01:04:10;;;;;;;64.05;35.25;;;;;;;;;;5074397;28;20017;-88
2021/06/29 01:06:37;;;;;;;56.00;31.13;;;;;;;;;;5072791;28;20471;-89
2021/06/29 01:09:02;;;;;;;54.75;32.47;;;;;;;;;;5061450;28;20017;-89
2021/06/29 01:11:27;;;;;;;55.25;31.08;;;;;;;;;;5071519;28;20476;-89
2021/06/29 01:13:53;;;;;;;56.28;33.60;;;;;;;;;;5075313;28;20016;-89
2021/06/29 01:16:18;;;;;;;71.10;35.80;;;;;;;;;;5074216;28;20381;-88
2021/06/29 01:18:44;;;;;;;61.50;35.85;;;;;;;;;;5073907;28;20046;-88
2021/06/29 01:21:13;;;;;;;68.03;37.13;;;;;;;;;;5073951;28;20055;-88
2021/06/29 01:23:40;;;;;;;64.75;36.30;;;;;;;;;;5072362;28;20106;-88
2021/06/29 01:26:15;;;;;;;66.15;32.80;;;;;;;;;;5060292;28;20412;-88
2021/06/29 01:28:52;;;;;;;62.17;37.03;;;;;;;;;;5069733;28;20036;-88
2021/06/29 01:31:17;;;;;;;70.22;38.25;;;;;;;;;;5062243;28;20023;-88
2021/06/29 01:33:43;;;;;;;66.05;38.00;;;;;;;;;;5069397;28;20100;-88
2021/06/29 01:36:08;;;;;;;74.45;37.58;;;;;;;;;;5073402;28;20020;-88
2021/06/29 01:38:33;;;;;;;64.10;36.88;;;;;;;;;;5073268;28;20038;-88
2021/06/29 01:40:59;;;;;;;70.63;38.30;;;;;;;;;;5072980;28;20055;-88
2021/06/29 01:43:28;;;;;;;69.70;38.95;;;;;;;;;;5059726;28;20029;-89
2021/06/29 01:45:55;;;;;;;68.32;38.78;;;;;;;;;;5073530;28;20116;-88
2021/06/29 01:48:26;;;;;;;66.65;38.33;;;;;;;;;;5073193;28;20024;-88
2021/06/29 01:50:52;;;;;;;66.22;36.42;;;;;;;;;;5073289;28;20024;-89
2021/06/29 01:53:18;;;;;;;64.97;36.90;;;;;;;;;;5073139;28;20490;-89
2021/06/29 01:55:43;;;;;;;55.78;34.15;;;;;;;;;;5074535;28;20067;-89
2021/06/29 01:58:08;;;;;;;61.95;35.55;;;;;;;;;;5060146;28;20491;-88
2021/06/29 02:00:34;;;;;;;62.65;36.08;;;;;;;;;;5073263;28;20024;-88
2021/06/29 02:02:59;;;;;;;57.75;33.65;;;;;;;;;;5073318;28;20027;-88
2021/06/29 02:05:24;;;;;;;67.18;37.20;;;;;;;;;;5073081;28;20032;-89
2021/06/29 02:07:49;;;;;;;64.53;37.63;;;;;;;;;;5073024;28;20016;-88
2021/06/29 02:10:15;;;;;;;69.10;37.75;;;;;;;;;;5073039;28;20016;-88
2021/06/29 02:12:41;;;;;;;53.00;30.20;;;;;;;;;;5073020;28;20028;-88
2021/06/29 02:15:07;;;;;;;63.45;33.58;;;;;;;;;;5057657;28;20013;-89
2021/06/29 02:17:32;;;;;;;62.47;34.33;;;;;;;;;;5060079;28;20024;-89
2021/06/29 02:19:57;;;;;;;62.05;34.33;;;;;;;;;;5072794;28;20051;-89
2021/06/29 02:22:23;;;;;;;52.58;28.98;;;;;;;;;;5054795;28;20021;-89
2021/06/29 02:24:48;;;;;;;60.00;33.63;;;;;;;;;;5052947;28;20020;-88
2021/06/29 02:27:13;;;;;;;59.38;32.22;;;;;;;;;;5061425;28;20104;-88
2021/06/29 02:29:38;;;;;;;58.42;33.08;;;;;;;;;;5072521;28;20024;-89
2021/06/29 02:32:04;;;;;;;64.25;34.25;;;;;;;;;;5065899;28;20542;-88
2021/06/29 02:34:29;;;;;;;63.10;34.83;;;;;;;;;;5068706;28;20476;-89
2021/06/29 02:36:54;;;;;;;62.70;35.65;;;;;;;;;;5072389;28;20025;-89
2021/06/29 02:39:19;;;;;;;72.50;36.25;;;;;;;;;;5058557;28;20021;-89
2021/06/29 02:41:44;;;;;;;85.05;42.78;;;;;;;;;;5072591;28;20108;-88
2021/06/29 02:44:11;;;;;;;89.50;44.05;;;;;;;;;;5059841;28;20107;-88
2021/06/29 02:46:36;;;;;;;82.22;43.70;;;;;;;;;;5066548;28;20447;-89
2021/06/29 02:49:01;;;;;;;88.55;44.63;;;;;;;;;;5062951;28;20112;-88
2021/06/29 02:51:26;;;;;;;83.05;43.47;;;;;;;;;;5058156;28;20461;-89
2021/06/29 02:53:52;;;;;;;80.50;41.58;;;;;;;;;;5063905;28;20108;-88
2021/06/29 02:59:05;;;;;;;72.45;37.72;;;;;;;;;;5063161;28;20043;-88
2021/06/29 03:01:30;;;;;;;72.07;39.05;;;;;;;;;;5054116;28;20029;-89
2021/06/29 03:03:55;;;;;;;72.45;39.38;;;;;;;;;;5085953;28;20043;-88
2021/06/29 03:06:21;;;;;;;82.15;41.25;;;;;;;;;;5051994;28;20028;-88
2021/06/29 03:08:46;;;;;;;83.55;42.33;;;;;;;;;;5085488;28;20112;-88
2021/06/29 03:11:11;;;;;;;86.10;43.67;;;;;;;;;;5052186;28;20461;-89
2021/06/29 03:13:36;;;;;;;88.15;42.72;;;;;;;;;;5053378;28;20009;-88
2021/06/29 03:16:02;;;;;;;84.25;43.25;;;;;;;;;;5053022;28;20405;-89
2021/06/29 03:18:27;;;;;;;87.80;43.78;;;;;;;;;;5051188;28;20027;-88
2021/06/29 03:20:52;;;;;;;78.65;40.50;;;;;;;;;;5084613;28;20392;-89
2021/06/29 03:23:17;;;;;;;81.20;41.42;;;;;;;;;;5084807;28;20542;-89
2021/06/29 03:25:43;;;;;;;83.68;42.28;;;;;;;;;;5084401;28;20032;-89
2021/06/29 03:28:08;;;;;;;81.88;40.63;;;;;;;;;;5084686;28;20455;-89
2021/06/29 03:30:33;;;;;;;82.40;41.92;;;;;;;;;;5084790;28;20112;-88
2021/06/29 03:32:59;;;;;;;83.53;41.45;;;;;;;;;;5084734;28;20024;-88
2021/06/29 03:35:24;;;;;;;82.15;41.17;;;;;;;;;;5052058;28;20035;-89
2021/06/29 03:37:49;;;;;;;80.07;42.42;;;;;;;;;;5084526;28;20029;-88
2021/06/29 03:40:16;;;;;;;89.85;42.45;;;;;;;;;;5084516;28;20023;-87
2021/06/29 03:42:41;;;;;;;82.00;40.33;;;;;;;;;;5051459;28;20032;-88
2021/06/29 03:45:06;;;;;;;86.70;43.85;;;;;;;;;;5084951;28;20489;-88
2021/06/29 03:47:31;;;;;;;104.00;51.90;;;;;;;;;;5051673;28;20029;-89
2021/06/29 03:50:00;;;;;;;120.28;49.10;;;;;;;;;;5079819;28;20022;-89
2021/06/29 03:52:26;;;;;;;139.57;52.92;;;;;;;;;;5057141;28;20491;-89
2021/06/29 03:54:51;;;;;;;123.60;50.13;;;;;;;;;;5089387;28;20017;-88
2021/06/29 03:57:16;;;;;;;114.50;47.83;;;;;;;;;;5055974;28;20427;-89
2021/06/29 03:59:41;;;;;;;126.25;48.58;;;;;;;;;;5080712;28;20029;-88
2021/06/29 04:02:06;;;;;;;117.10;47.05;;;;;;;;;;5054409;28;20036;-89
2021/06/29 04:04:32;;;;;;;116.40;45.33;;;;;;;;;;5089335;28;20162;-88
2021/06/29 04:06:57;;;;;;;116.40;46.58;;;;;;;;;;5056576;28;20475;-89
2021/06/29 04:09:22;;;;;;;119.18;47.60;;;;;;;;;;5055643;28;20055;-89
2021/06/29 04:11:48;;;;;;;109.70;43.80;;;;;;;;;;5089208;28;20089;-89
2021/06/29 04:14:13;;;;;;;119.93;47.35;;;;;;;;;;5084334;28;20020;-89
2021/06/29 04:16:38;;;;;;;114.80;44.78;;;;;;;;;;5046934;28;20074;-89
2021/06/29 04:19:03;;;;;;;121.47;49.95;;;;;;;;;;5056790;28;20419;-88
2021/06/29 04:21:28;;;;;;;109.97;44.08;;;;;;;;;;5056673;28;20267;-89
2021/06/29 04:23:54;;;;;;;100.03;43.28;;;;;;;;;;5088821;28;20024;-89
2021/06/29 04:26:20;;;;;;;103.65;42.28;;;;;;;;;;5088997;28;20032;-89
2021/06/29 04:28:45;;;;;;;89.45;37.20;;;;;;;;;;5088470;28;20032;-88
2021/06/29 04:31:11;;;;;;;75.57;32.67;;;;;;;;;;5088650;28;20013;-89
2021/06/29 04:33:36;;;;;;;82.50;33.97;;;;;;;;;;5088450;28;20017;-88
2021/06/29 04:36:02;;;;;;;90.18;39.90;;;;;;;;;;5055019;28;20484;-89
2021/06/29 04:38:27;;;;;;;105.57;41.17;;;;;;;;;;5088475;28;20039;-89
2021/06/29 04:40:52;;;;;;;100.32;39.97;;;;;;;;;;5088473;28;20107;-88
2021/06/29 04:43:18;;;;;;;101.93;39.38;;;;;;;;;;5088503;28;20085;-89
2021/06/29 04:45:43;;;;;;;95.55;36.25;;;;;;;;;;5054714;28;20495;-89
2021/06/29 04:48:09;;;;;;;104.05;39.92;;;;;;;;;;5054683;28;20027;-89
2021/06/29 04:50:35;;;;;;;107.13;39.58;;;;;;;;;;5088371;28;20017;-90
2021/06/29 04:53:01;;;;;;;97.30;35.67;;;;;;;;;;5088179;28;20025;-88
2021/06/29 04:55:26;;;;;;;99.13;38.15;;;;;;;;;;5088306;28;20087;-88
2021/06/29 04:57:51;;;;;;;93.15;36.72;;;;;;;;;;5088157;28;20074;-88
2021/06/29 05:00:18;;;;;;;88.00;34.95;;;;;;;;;;5087070;28;20025;-88
2021/06/29 05:02:44;;;;;;;78.75;32.67;;;;;;;;;;5048524;28;20021;-88
2021/06/29 05:05:09;;;;;;;79.78;32.53;;;;;;;;;;5087867;28;20021;-88
2021/06/29 05:07:38;;;;;;;88.70;34.72;;;;;;;;;;5055689;28;20021;-89
2021/06/29 05:10:04;;;;;;;86.72;34.33;;;;;;;;;;5088047;28;20092;-88
2021/06/29 05:12:29;;;;;;;87.32;37.40;;;;;;;;;;5055666;28;20423;-88
2021/06/29 05:14:55;;;;;;;91.57;37.78;;;;;;;;;;5054585;28;20108;-89
2021/06/29 05:17:20;;;;;;;95.95;39.33;;;;;;;;;;5055620;28;20012;-88
2021/06/29 05:19:45;;;;;;;95.43;40.53;;;;;;;;;;5054432;28;20487;-88
2021/06/29 05:22:10;;;;;;;100.65;39.90;;;;;;;;;;5087888;28;20052;-88
2021/06/29 05:24:35;;;;;;;92.80;40.97;;;;;;;;;;5087728;28;20025;-88
2021/06/29 05:27:00;;;;;;;90.15;38.58;;;;;;;;;;5082743;28;20029;-88
2021/06/29 05:29:26;;;;;;;83.60;38.33;;;;;;;;;;5053563;28;20029;-88
2021/06/29 05:31:51;;;;;;;91.50;38.80;;;;;;;;;;5087324;28;20418;-89
2021/06/29 05:34:16;;;;;;;90.65;39.65;;;;;;;;;;5087224;28;20039;-89
2021/06/29 05:36:42;;;;;;;91.35;37.22;;;;;;;;;;5053642;28;20074;-89
2021/06/29 05:39:08;;;;;;;88.97;36.47;;;;;;;;;;5052900;28;20017;-88
2021/06/29 05:41:33;;;;;;;89.30;37.35;;;;;;;;;;5079867;28;20365;-89
2021/06/29 05:43:58;;;;;;;81.75;36.55;;;;;;;;;;5050359;28;20025;-88
2021/06/29 05:46:23;;;;;;;84.88;35.55;;;;;;;;;;5049554;28;20026;-88
2021/06/29 05:48:50;;;;;;;80.75;35.67;;;;;;;;;;5044245;28;20025;-88
2021/06/29 05:51:16;;;;;;;72.30;34.65;;;;;;;;;;5045441;28;20488;-88
2021/06/29 05:53:41;;;;;;;64.15;30.20;;;;;;;;;;5052773;28;20021;-88
2021/06/29 05:56:07;;;;;;;54.15;24.55;;;;;;;;;;5053507;28;20500;-89
2021/06/29 05:58:32;;;;;;;47.28;22.20;;;;;;;;;;5087156;28;20017;-88
2021/06/29 06:00:58;;;;;;;39.08;18.42;;;;;;;;;;5083318;28;20025;-88
2021/06/29 06:03:23;;;;;;;31.63;16.67;;;;;;;;;;5053550;28;20017;-88
2021/06/29 06:05:48;;;;;;;26.92;13.07;;;;;;;;;;5053183;28;20444;-88
2021/06/29 06:08:13;;;;;;;22.52;12.05;;;;;;;;;;5052897;28;20025;-88
2021/06/29 06:10:39;;;;;;;24.08;12.00;;;;;;;;;;5052745;28;20009;-88
2021/06/29 06:13:04;;;;;;;21.65;11.00;;;;;;;;;;5052706;28;20104;-88
2021/06/29 06:15:29;;;;;;;22.15;10.07;;;;;;;;;;5085879;28;20016;-88
2021/06/29 06:17:54;;;;;;;21.92;10.45;;;;;;;;;;5086621;28;20033;-88
2021/06/29 06:20:20;;;;;;;17.88;9.65;;;;;;;;;;5052304;28;20037;-88
2021/06/29 06:22:46;;;;;;;23.50;10.18;;;;;;;;;;5052813;28;20086;-88
2021/06/29 06:25:11;;;;;;;16.05;9.18;;;;;;;;;;5086510;28;20025;-88
2021/06/29 06:27:37;;;;;;;13.75;6.82;;;;;;;;;;5051872;28;20103;-87
2021/06/29 06:30:05;;;;;;;10.73;5.57;;;;;;;;;;5054417;28;20040;-88
2021/06/29 06:32:31;;;;;;;7.22;4.30;;;;;;;;;;5052590;28;20506;-88
2021/06/29 06:34:56;;;;;;;9.10;4.65;;;;;;;;;;5051906;28;20033;-88
2021/06/29 06:37:22;;;;;;;6.63;3.65;;;;;;;;;;5047584;28;20477;-88
2021/06/29 06:39:47;;;;;;;6.68;3.72;;;;;;;;;;5050850;28;20053;-87
2021/06/29 06:42:12;;;;;;;7.07;3.25;;;;;;;;;;5051465;28;20025;-88
2021/06/29 06:44:37;;;;;;;5.28;2.92;;;;;;;;;;5050507;28;20035;-87
2021/06/29 06:47:03;;;;;;;6.30;3.22;;;;;;;;;;5051337;28;20098;-88
2021/06/29 06:49:28;;;;;;;12.50;3.97;;;;;;;;;;5052149;28;20025;-87
2021/06/29 06:51:53;;;;;;;5.03;3.00;;;;;;;;;;5058685;28;20021;-87
2021/06/29 06:54:19;;;;;;;6.55;2.92;;;;;;;;;;5058069;28;20075;-87
2021/06/29 06:56:44;;;;;;;4.93;2.75;;;;;;;;;;5051687;28;20017;-87
2021/06/29 06:59:09;;;;;;;6.55;2.92;;;;;;;;;;5050865;28;20400;-88
2021/06/29 07:01:38;;;;;;;6.10;2.70;;;;;;;;;;5051881;28;20052;-87
2021/06/29 07:04:03;;;;;;;7.95;2.70;;;;;;;;;;5052300;28;20055;-87
2021/06/29 07:06:28;;;;;;;4.50;2.50;;;;;;;;;;5051417;28;20052;-87
2021/06/29 07:08:53;;;;;;;5.95;2.95;;;;;;;;;;5051184;28;20017;-87
2021/06/29 07:11:19;;;;;;;6.65;2.60;;;;;;;;;;5051543;28;20021;-86
2021/06/29 07:13:44;;;;;;;3.67;2.60;;;;;;;;;;5051322;28;20028;-87
2021/06/29 07:16:09;;;;;;;8.25;2.92;;;;;;;;;;5053031;28;20048;-87
2021/06/29 07:18:34;;;;;;;6.35;3.20;;;;;;;;;;5051988;28;20112;-87
2021/06/29 07:20:59;;;;;;;6.88;2.83;;;;;;;;;;5053022;28;20457;-87
2021/06/29 07:23:25;;;;;;;10.70;3.28;;;;;;;;;;5051318;28;20020;-87
2021/06/29 07:25:50;;;;;;;5.57;2.75;;;;;;;;;;5051684;28;20028;-87
2021/06/29 07:28:15;;;;;;;5.90;3.13;;;;;;;;;;5051710;28;20021;-88
2021/06/29 07:30:41;;;;;;;8.38;3.08;;;;;;;;;;5051618;28;20017;-87
2021/06/29 07:33:07;;;;;;;6.15;3.17;;;;;;;;;;5051680;28;20017;-88
2021/06/29 07:35:33;;;;;;;9.95;3.10;;;;;;;;;;5051805;28;20039;-88
2021/06/29 07:38:00;;;;;;;5.03;2.95;;;;;;;;;;5051817;28;20033;-88
2021/06/29 07:40:25;;;;;;;10.98;3.05;;;;;;;;;;5051846;28;20029;-87
2021/06/29 07:42:51;;;;;;;10.20;4.28;;;;;;;;;;5051602;28;20017;-87
2021/06/29 07:45:16;;;;;;;12.10;3.67;;;;;;;;;;5052826;28;20392;-87
2021/06/29 07:47:42;;;;;;;3.95;2.72;;;;;;;;;;5052738;28;20025;-87
2021/06/29 07:50:09;;;;;;;6.82;3.00;;;;;;;;;;5051338;28;20017;-87
2021/06/29 07:52:35;;;;;;;12.60;3.20;;;;;;;;;;5051666;28;20110;-87
2021/06/29 07:55:00;;;;;;;5.80;2.60;;;;;;;;;;5051547;28;20056;-87
2021/06/29 07:57:25;;;;;;;10.73;3.47;;;;;;;;;;5051695;28;20528;-87
2021/06/29 07:59:50;;;;;;;6.80;3.15;;;;;;;;;;5052728;28;20415;-87
2021/06/29 08:02:16;;;;;;;8.15;2.80;;;;;;;;;;5051625;28;20013;-88
2021/06/29 08:04:42;;;;;;;7.85;3.53;;;;;;;;;;5051354;28;20021;-87
2021/06/29 08:07:07;;;;;;;7.07;3.05;;;;;;;;;;5050636;28;20442;-87
2021/06/29 08:09:33;;;;;;;9.27;3.25;;;;;;;;;;5050889;28;20113;-87
2021/06/29 08:11:58;;;;;;;7.38;3.00;;;;;;;;;;5047545;28;20013;-91
2021/06/29 08:14:23;;;;;;;10.60;3.53;;;;;;;;;;5050840;28;20067;-85
2021/06/29 08:16:48;;;;;;;14.25;4.35;;;;;;;;;;5050827;28;20045;-86
2021/06/29 08:19:14;;;;;;;8.13;3.63;;;;;;;;;;5046367;28;20444;-86
2021/06/29 08:21:39;;;;;;;10.57;4.20;;;;;;;;;;5051026;28;20033;-85
2021/06/29 08:24:04;;;;;;;7.40;3.47;;;;;;;;;;5049110;28;20491;-85
2021/06/29 08:26:29;;;;;;;18.25;3.97;;;;;;;;;;5051242;28;20021;-86
2021/06/29 08:28:55;;;;;;;5.57;3.25;;;;;;;;;;5052382;28;20054;-85
2021/06/29 08:31:21;;;;;;;8.45;3.65;;;;;;;;;;5052601;28;20021;-85
2021/06/29 08:33:47;;;;;;;10.32;4.30;;;;;;;;;;5051118;28;20016;-86
2021/06/29 08:36:12;;;;;;;12.52;4.10;;;;;;;;;;5054471;28;20017;-87
2021/06/29 08:38:37;;;;;;;9.70;3.95;;;;;;;;;;5055000;28;20021;-86
2021/06/29 08:41:02;;;;;;;9.73;3.80;;;;;;;;;;5054838;28;20024;-86
2021/06/29 08:43:27;;;;;;;12.77;4.13;;;;;;;;;;5056032;28;20534;-87
2021/06/29 08:45:54;;;;;;;7.28;3.22;;;;;;;;;;5054793;28;20025;-85
2021/06/29 08:48:19;;;;;;;9.50;4.35;;;;;;;;;;5054723;28;20123;-85
2021/06/29 08:50:45;;;;;;;11.15;3.88;;;;;;;;;;5054835;28;20535;-85
2021/06/29 08:53:11;;;;;;;9.77;4.45;;;;;;;;;;5054583;28;20071;-85
2021/06/29 08:55:47;;;;;;;10.50;3.28;;;;;;;;;;5055968;28;20033;-85
2021/06/29 08:58:16;;;;;;;7.88;3.90;;;;;;;;;;5054514;28;20020;-86
2021/06/29 09:00:41;;;;;;;9.30;5.00;;;;;;;;;;5055870;28;20457;-86
2021/06/29 09:03:07;;;;;;;7.32;4.40;;;;;;;;;;5054337;28;20060;-85
2021/06/29 09:05:32;;;;;;;6.88;3.45;;;;;;;;;;5054195;28;20061;-85
2021/06/29 09:08:17;;;;;;;8.27;3.33;;;;;;;;;;5054301;28;20016;-85
2021/06/29 09:10:43;;;;;;;16.38;4.10;;;;;;;;;;5052854;28;20017;-85
2021/06/29 09:13:10;;;;;;;5.95;3.20;;;;;;;;;;5054150;28;20037;-86
2021/06/29 09:15:38;;;;;;;7.57;3.08;;;;;;;;;;5054200;28;20021;-85
2021/06/29 09:18:11;;;;;;;7.70;3.20;;;;;;;;;;5054329;28;20112;-86
2021/06/29 09:20:38;;;;;;;7.13;3.35;;;;;;;;;;5053907;28;20025;-85
2021/06/29 09:23:14;;;;;;;4.70;3.38;;;;;;;;;;5053928;28;20024;-86
2021/06/29 09:25:41;;;;;;;8.75;3.72;;;;;;;;;;5055209;28;20096;-85
2021/06/29 09:28:07;;;;;;;9.30;3.83;;;;;;;;;;5054010;28;20021;-86
2021/06/29 09:30:37;;;;;;;9.85;3.72;;;;;;;;;;5054116;28;20442;-85
2021/06/29 09:33:07;;;;;;;7.22;3.22;;;;;;;;;;5055230;28;20464;-86
2021/06/29 09:35:32;;;;;;;6.20;2.83;;;;;;;;;;5053643;28;20025;-86
2021/06/29 09:37:58;;;;;;;6.28;3.08;;;;;;;;;;5054990;28;20376;-85
2021/06/29 09:40:25;;;;;;;5.70;3.65;;;;;;;;;;5053488;28;20029;-86
2021/06/29 09:42:51;;;;;;;7.13;4.30;;;;;;;;;;5053917;28;20074;-86
2021/06/29 09:45:41;;;;;;;8.10;4.60;;;;;;;;;;5053016;28;20052;-85
2021/06/29 09:48:10;;;;;;;7.55;3.78;;;;;;;;;;5053197;28;20456;-86
2021/06/29 09:50:35;;;;;;;12.13;4.15;;;;;;;;;;5053399;28;20021;-86
2021/06/29 09:53:31;;;;;;;19.83;5.32;;;;;;;;;;5053627;28;20460;-85
2021/06/29 09:56:02;;;;;;;12.82;4.95;;;;;;;;;;5049179;28;20464;-86
2021/06/29 09:58:28;;;;;;;7.55;4.25;;;;;;;;;;5052681;28;20029;-85
2021/06/29 10:00:54;;;;;;;6.80;4.97;;;;;;;;;;5042233;28;20477;-86
2021/06/29 10:03:27;;;;;;;7.15;5.03;;;;;;;;;;5050946;28;20071;-86
2021/06/29 10:05:54;;;;;;;12.80;4.07;;;;;;;;;;5053390;28;20028;-85
2021/06/29 10:08:29;;;;;;;5.55;3.83;;;;;;;;;;5052398;28;20021;-85
2021/06/29 10:11:05;;;;;;;8.95;5.55;;;;;;;;;;5040761;28;20066;-86
2021/06/29 10:13:35;;;;;;;13.95;5.97;;;;;;;;;;5053231;28;20442;-85
2021/06/29 10:16:00;;;;;;;16.48;7.75;;;;;;;;;;5053197;28;20103;-85
2021/06/29 10:18:26;;;;;;;13.40;6.13;;;;;;;;;;5053684;28;20055;-86
2021/06/29 10:20:53;;;;;;;16.05;6.55;;;;;;;;;;5086451;28;20017;-86
2021/06/29 10:23:19;;;;;;;11.85;6.85;;;;;;;;;;5052905;28;20021;-86
2021/06/29 10:25:44;;;;;;;13.13;6.10;;;;;;;;;;5051394;28;20465;-86
2021/06/29 10:28:13;;;;;;;9.55;5.65;;;;;;;;;;5041078;28;20029;-86
2021/06/29 10:30:39;;;;;;;12.52;5.78;;;;;;;;;;5052776;28;20017;-85
2021/06/29 10:33:05;;;;;;;10.18;5.50;;;;;;;;;;5052409;28;20013;-85
2021/06/29 10:35:30;;;;;;;10.50;4.97;;;;;;;;;;5052573;28;20028;-86
2021/06/29 10:37:56;;;;;;;8.95;4.90;;;;;;;;;;5052408;28;20408;-86
2021/06/29 10:40:21;;;;;;;8.90;5.28;;;;;;;;;;5051801;28;20051;-86
2021/06/29 10:42:47;;;;;;;12.60;4.72;;;;;;;;;;5052694;28;20036;-85
2021/06/29 10:45:13;;;;;;;10.95;4.25;;;;;;;;;;5052509;28;20025;-85
2021/06/29 10:47:39;;;;;;;7.30;4.00;;;;;;;;;;5051894;28;20357;-86
2021/06/29 10:50:10;;;;;;;6.35;4.72;;;;;;;;;;5051768;28;20020;-85
2021/06/29 10:52:37;;;;;;;13.32;5.55;;;;;;;;;;5053430;28;20024;-85
2021/06/29 10:55:17;;;;;;;7.03;4.25;;;;;;;;;;5052335;28;20021;-85
2021/06/29 10:57:50;;;;;;;13.77;5.68;;;;;;;;;;5052081;28;20024;-85
2021/06/29 11:00:15;;;;;;;9.57;4.68;;;;;;;;;;5063622;28;20029;-85
2021/06/29 11:02:40;;;;;;;10.93;6.30;;;;;;;;;;5047450;28;20021;-85
2021/06/29 11:05:07;;;;;;;10.02;5.75;;;;;;;;;;5052098;28;20254;-85
2021/06/29 11:07:32;;;;;;;12.15;5.90;;;;;;;;;;5050193;28;20480;-85
2021/06/29 11:10:02;;;;;;;10.93;5.45;;;;;;;;;;5051305;28;20017;-85
2021/06/29 11:12:28;;;;;;;13.75;6.18;;;;;;;;;;5051501;28;20266;-85
2021/06/29 11:14:55;;;;;;;9.60;5.35;;;;;;;;;;5052089;28;20021;-86
2021/06/29 11:17:22;;;;;;;10.80;5.70;;;;;;;;;;5051754;28;20029;-85
2021/06/29 11:19:56;;;;;;;10.38;5.25;;;;;;;;;;5052260;28;20408;-85
2021/06/29 11:22:40;;;;;;;10.45;6.30;;;;;;;;;;5051896;28;20028;-86
2021/06/29 11:25:06;;;;;;;11.98;5.35;;;;;;;;;;5051279;28;20021;-86
2021/06/29 11:27:50;;;;;;;11.52;6.30;;;;;;;;;;5051653;28;20068;-85
2021/06/29 11:30:35;;;;;;;10.90;5.47;;;;;;;;;;5051292;28;20013;-85
2021/06/29 11:33:20;;;;;;;13.48;6.78;;;;;;;;;;5085214;28;20115;-85
2021/06/29 11:35:45;;;;;;;12.15;6.85;;;;;;;;;;5047544;28;20485;-85
2021/06/29 11:38:10;;;;;;;13.02;7.25;;;;;;;;;;5051841;28;20025;-85
2021/06/29 11:40:36;;;;;;;12.75;7.15;;;;;;;;;;5051330;28;20017;-85
2021/06/29 11:43:09;;;;;;;12.57;7.18;;;;;;;;;;5052520;28;20025;-85
2021/06/29 11:45:34;;;;;;;10.25;6.35;;;;;;;;;;5051546;28;20085;-86
2021/06/29 11:47:59;;;;;;;16.42;7.93;;;;;;;;;;5050923;28;20527;-86
2021/06/29 11:50:25;;;;;;;10.25;6.43;;;;;;;;;;5051621;28;20017;-86
2021/06/29 11:52:50;;;;;;;13.82;7.72;;;;;;;;;;5051619;28;20021;-86
2021/06/29 11:55:19;;;;;;;13.23;6.65;;;;;;;;;;5052467;28;20021;-86
2021/06/29 11:57:46;;;;;;;12.27;5.90;;;;;;;;;;5051771;28;20071;-87
2021/06/29 12:00:26;;;;;;;13.27;6.15;;;;;;;;;;5051627;28;20020;-87
2021/06/29 12:02:59;;;;;;;15.73;7.38;;;;;;;;;;5051163;28;20468;-86
2021/06/29 12:05:26;;;;;;;13.80;7.68;;;;;;;;;;5038634;28;20109;-86
2021/06/29 12:07:52;;;;;;;11.35;6.72;;;;;;;;;;5051674;28;20067;-87
2021/06/29 12:10:23;;;;;;;14.57;7.32;;;;;;;;;;5052754;28;20016;-86
2021/06/29 12:12:59;;;;;;;12.55;7.30;;;;;;;;;;5054117;28;20036;-87
2021/06/29 12:15:32;;;;;;;15.20;7.78;;;;;;;;;;5056663;28;20024;-87
2021/06/29 12:18:02;;;;;;;12.63;7.28;;;;;;;;;;5055890;28;20025;-87
2021/06/29 12:20:35;;;;;;;15.25;8.23;;;;;;;;;;5055238;28;20553;-86
2021/06/29 12:23:01;;;;;;;13.73;6.97;;;;;;;;;;5070234;28;20029;-86
2021/06/29 12:25:28;;;;;;;12.45;5.47;;;;;;;;;;5055166;28;20029;-87
2021/06/29 12:27:54;;;;;;;7.60;5.20;;;;;;;;;;5054971;28;20465;-87
2021/06/29 12:30:35;;;;;;;10.55;6.53;;;;;;;;;;5054987;28;20025;-86
2021/06/29 12:33:11;;;;;;;12.27;5.55;;;;;;;;;;5056086;28;20017;-86
2021/06/29 12:35:37;;;;;;;14.23;6.43;;;;;;;;;;5055127;28;20079;-87
2021/06/29 12:38:04;;;;;;;11.40;6.70;;;;;;;;;;5054819;28;20021;-86
2021/06/29 12:40:31;;;;;;;13.05;6.50;;;;;;;;;;5054661;28;20094;-87
2021/06/29 12:42:56;;;;;;;9.88;6.28;;;;;;;;;;5050194;28;20025;-87
2021/06/29 12:45:21;;;;;;;10.07;6.00;;;;;;;;;;5072340;28;20031;-87
2021/06/29 12:47:59;;;;;;;14.90;7.88;;;;;;;;;;5054681;28;20115;-86
2021/06/29 12:50:24;;;;;;;15.48;7.90;;;;;;;;;;5056072;28;20538;-87
2021/06/29 12:52:52;;;;;;;12.20;7.85;;;;;;;;;;5054560;28;20047;-87
2021/06/29 12:55:17;;;;;;;13.32;7.53;;;;;;;;;;5053662;28;20452;-87
2021/06/29 12:57:43;;;;;;;10.25;7.72;;;;;;;;;;5054649;28;20029;-86
2021/06/29 13:00:10;;;;;;;15.07;6.93;;;;;;;;;;5054486;28;20017;-87
2021/06/29 13:02:41;;;;;;;11.43;6.47;;;;;;;;;;5054335;28;20017;-87
2021/06/29 13:05:14;;;;;;;11.68;6.68;;;;;;;;;;5052071;28;20021;-87
2021/06/29 13:07:39;;;;;;;21.35;8.35;;;;;;;;;;5053771;28;20514;-87
2021/06/29 13:10:08;;;;;;;19.35;9.90;;;;;;;;;;5054279;28;20017;-87
2021/06/29 13:12:33;;;;;;;23.23;10.65;;;;;;;;;;5054224;28;20049;-87
2021/06/29 13:15:01;;;;;;;16.73;10.38;;;;;;;;;;5076587;28;20052;-87
2021/06/29 13:17:26;;;;;;;16.48;8.80;;;;;;;;;;5052104;28;20066;-87
2021/06/29 13:20:05;;;;;;;17.02;10.27;;;;;;;;;;5055343;28;20480;-87
2021/06/29 13:23:01;;;;;;;24.38;11.55;;;;;;;;;;5087654;28;20020;-87
2021/06/29 13:25:31;;;;;;;31.13;14.35;;;;;;;;;;5052320;28;20029;-86
2021/06/29 13:28:04;;;;;;;23.95;11.63;;;;;;;;;;5053482;28;20028;-87
2021/06/29 13:30:29;;;;;;;22.05;10.82;;;;;;;;;;5081317;28;20017;-87
2021/06/29 13:32:55;;;;;;;25.73;13.40;;;;;;;;;;5053752;28;20103;-87
2021/06/29 13:35:22;;;;;;;22.00;12.02;;;;;;;;;;5087377;28;20025;-87
2021/06/29 13:37:48;;;;;;;23.27;12.85;;;;;;;;;;5052120;28;20027;-86
2021/06/29 13:40:25;;;;;;;21.85;13.02;;;;;;;;;;5044274;28;20029;-86
2021/06/29 13:43:02;;;;;;;25.83;14.52;;;;;;;;;;5053370;28;20495;-86
2021/06/29 13:45:49;;;;;;;30.40;12.70;;;;;;;;;;5043076;28;20025;-87
2021/06/29 13:48:25;;;;;;;22.13;11.60;;;;;;;;;;5053445;28;20112;-86
2021/06/29 13:50:50;;;;;;;35.00;16.00;;;;;;;;;;5087048;28;20529;-86
2021/06/29 13:53:23;;;;;;;30.35;14.50;;;;;;;;;;5083206;28;20017;-86
2021/06/29 13:55:50;;;;;;;32.97;15.75;;;;;;;;;;5052175;28;20049;-86
2021/06/29 13:58:25;;;;;;;35.70;16.50;;;;;;;;;;5057925;28;20023;-86
2021/06/29 14:01:01;;;;;;;27.63;14.93;;;;;;;;;;5083543;28;20380;-86
2021/06/29 14:03:30;;;;;;;17.95;11.50;;;;;;;;;;5049790;28;20029;-86
2021/06/29 14:06:06;;;;;;;24.85;12.40;;;;;;;;;;5050513;28;20025;-86
2021/06/29 14:08:41;;;;;;;25.10;11.45;;;;;;;;;;5052789;28;20028;-86
2021/06/29 14:11:06;;;;;;;17.40;9.75;;;;;;;;;;5053245;28;20456;-86
2021/06/29 14:13:42;;;;;;;23.48;10.35;;;;;;;;;;5052269;28;20021;-86
2021/06/29 14:16:08;;;;;;;20.50;10.55;;;;;;;;;;5051237;28;20021;-86
2021/06/29 14:18:34;;;;;;;37.45;16.65;;;;;;;;;;5078127;28;20078;-87
2021/06/29 14:21:00;;;;;;;40.97;17.00;;;;;;;;;;5051968;28;20029;-86
2021/06/29 14:23:26;;;;;;;47.92;19.63;;;;;;;;;;5048278;28;20017;-87
2021/06/29 14:25:51;;;;;;;52.33;23.02;;;;;;;;;;5049879;28;20056;-87
2021/06/29 14:28:16;;;;;;;45.13;18.63;;;;;;;;;;5054566;28;20368;-87